sensor_id;sensor_type;location;lat;lon;timestamp;P1;durP1;ratioP1;P2;durP2;ratioP2
32038;SDS011;18549;42.286;22.688;2023-04-24T00:02:02;15.50;;;11.20;;
32038;SDS011;18549;42.286;22.688;2023-04-24T00:04:29;10.02;;;7.57;;
32038;SDS011;18549;42.286;22.688;2023-04-24T00:06:56;15.48;;;9.10;;
32038;SDS011;18549;42.286;22.688;2023-04-24T00:09:25;19.33;;;10.05;;
32038;SDS011;18549;42.286;22.688;2023-04-24T00:11:52;16.15;;;10.10;;
32038;SDS011;18549;42.286;22.688;2023-04-24T00:14:19;42.25;;;20.50;;
32038;SDS011;18549;42.286;22.688;2023-04-24T00:16:47;38.42;;;21.50;;
32038;SDS011;18549;42.286;22.688;2023-04-24T00:19:14;40.63;;;21.67;;
32038;SDS011;18549;42.286;22.688;2023-04-24T00:21:41;46.10;;;22.92;;
32038;SDS011;18549;42.286;22.688;2023-04-24T00:24:08;42.58;;;21.60;;
32038;SDS011;18549;42.286;22.688;2023-04-24T00:26:38;30.77;;;17.35;;
32038;SDS011;18549;42.286;22.688;2023-04-24T00:29:04;29.95;;;15.32;;
32038;SDS011;18549;42.286;22.688;2023-04-24T00:31:31;33.30;;;16.73;;
32038;SDS011;18549;42.286;22.688;2023-04-24T00:34:02;29.98;;;15.88;;
32038;SDS011;18549;42.286;22.688;2023-04-24T00:36:29;29.25;;;16.62;;
32038;SDS011;18549;42.286;22.688;2023-04-24T00:38:57;30.88;;;16.80;;
32038;SDS011;18549;42.286;22.688;2023-04-24T00:41:25;26.67;;;16.35;;
32038;SDS011;18549;42.286;22.688;2023-04-24T00:43:52;28.92;;;15.80;;
32038;SDS011;18549;42.286;22.688;2023-04-24T00:46:19;20.25;;;11.80;;
32038;SDS011;18549;42.286;22.688;2023-04-24T00:48:47;7.37;;;6.15;;
32038;SDS011;18549;42.286;22.688;2023-04-24T00:51:15;11.57;;;6.75;;
32038;SDS011;18549;42.286;22.688;2023-04-24T00:53:46;8.43;;;5.87;;
32038;SDS011;18549;42.286;22.688;2023-04-24T00:56:12;6.30;;;5.62;;
32038;SDS011;18549;42.286;22.688;2023-04-24T00:58:40;9.57;;;5.50;;
32038;SDS011;18549;42.286;22.688;2023-04-24T01:01:07;10.45;;;8.00;;
32038;SDS011;18549;42.286;22.688;2023-04-24T01:03:36;12.60;;;10.27;;
32038;SDS011;18549;42.286;22.688;2023-04-24T01:06:04;17.25;;;12.85;;
32038;SDS011;18549;42.286;22.688;2023-04-24T01:08:33;18.23;;;14.32;;
32038;SDS011;18549;42.286;22.688;2023-04-24T01:11:02;17.45;;;11.77;;
32038;SDS011;18549;42.286;22.688;2023-04-24T01:13:30;9.45;;;8.30;;
32038;SDS011;18549;42.286;22.688;2023-04-24T01:15:58;17.05;;;6.68;;
32038;SDS011;18549;42.286;22.688;2023-04-24T01:18:26;13.02;;;6.97;;
32038;SDS011;18549;42.286;22.688;2023-04-24T01:20:53;9.82;;;6.60;;
32038;SDS011;18549;42.286;22.688;2023-04-24T01:23:24;16.23;;;7.87;;
32038;SDS011;18549;42.286;22.688;2023-04-24T01:25:51;10.20;;;8.03;;
32038;SDS011;18549;42.286;22.688;2023-04-24T01:28:19;12.35;;;7.22;;
32038;SDS011;18549;42.286;22.688;2023-04-24T01:30:46;15.30;;;8.98;;
32038;SDS011;18549;42.286;22.688;2023-04-24T01:33:13;10.18;;;7.00;;
32038;SDS011;18549;42.286;22.688;2023-04-24T01:35:40;12.37;;;7.30;;
32038;SDS011;18549;42.286;22.688;2023-04-24T01:38:06;12.80;;;7.82;;
32038;SDS011;18549;42.286;22.688;2023-04-24T01:40:35;12.48;;;8.50;;
32038;SDS011;18549;42.286;22.688;2023-04-24T01:43:02;11.10;;;7.07;;
32038;SDS011;18549;42.286;22.688;2023-04-24T01:45:28;8.75;;;7.03;;
32038;SDS011;18549;42.286;22.688;2023-04-24T01:47:55;11.15;;;7.85;;
32038;SDS011;18549;42.286;22.688;2023-04-24T01:50:22;12.88;;;8.07;;
32038;SDS011;18549;42.286;22.688;2023-04-24T01:52:49;17.55;;;8.95;;
32038;SDS011;18549;42.286;22.688;2023-04-24T01:55:16;16.77;;;9.02;;
32038;SDS011;18549;42.286;22.688;2023-04-24T01:57:45;10.68;;;8.88;;
32038;SDS011;18549;42.286;22.688;2023-04-24T02:00:12;16.23;;;8.75;;
32038;SDS011;18549;42.286;22.688;2023-04-24T02:02:39;10.55;;;9.07;;
32038;SDS011;18549;42.286;22.688;2023-04-24T02:05:07;15.80;;;9.00;;
32038;SDS011;18549;42.286;22.688;2023-04-24T02:07:35;12.70;;;9.43;;
32038;SDS011;18549;42.286;22.688;2023-04-24T02:10:02;13.52;;;9.50;;
32038;SDS011;18549;42.286;22.688;2023-04-24T02:12:30;13.00;;;9.77;;
32038;SDS011;18549;42.286;22.688;2023-04-24T02:14:58;16.00;;;9.82;;
32038;SDS011;18549;42.286;22.688;2023-04-24T02:17:25;16.70;;;10.70;;
32038;SDS011;18549;42.286;22.688;2023-04-24T02:19:52;18.52;;;10.23;;
32038;SDS011;18549;42.286;22.688;2023-04-24T02:22:18;23.33;;;12.93;;
32038;SDS011;18549;42.286;22.688;2023-04-24T02:24:45;16.87;;;12.25;;
32038;SDS011;18549;42.286;22.688;2023-04-24T02:27:12;16.58;;;10.40;;
32038;SDS011;18549;42.286;22.688;2023-04-24T02:29:39;15.25;;;9.52;;
32038;SDS011;18549;42.286;22.688;2023-04-24T02:32:08;18.75;;;10.15;;
32038;SDS011;18549;42.286;22.688;2023-04-24T02:34:37;11.43;;;9.95;;
32038;SDS011;18549;42.286;22.688;2023-04-24T02:37:03;16.15;;;9.85;;
32038;SDS011;18549;42.286;22.688;2023-04-24T02:39:31;15.23;;;10.47;;
32038;SDS011;18549;42.286;22.688;2023-04-24T02:41:58;16.40;;;9.47;;
32038;SDS011;18549;42.286;22.688;2023-04-24T02:44:25;16.58;;;9.68;;
32038;SDS011;18549;42.286;22.688;2023-04-24T02:46:51;14.38;;;10.23;;
32038;SDS011;18549;42.286;22.688;2023-04-24T02:49:20;15.20;;;9.98;;
32038;SDS011;18549;42.286;22.688;2023-04-24T02:51:46;15.57;;;10.93;;
32038;SDS011;18549;42.286;22.688;2023-04-24T02:54:13;22.13;;;11.38;;
32038;SDS011;18549;42.286;22.688;2023-04-24T02:56:40;21.70;;;12.43;;
32038;SDS011;18549;42.286;22.688;2023-04-24T02:59:07;17.62;;;12.40;;
32038;SDS011;18549;42.286;22.688;2023-04-24T03:01:36;17.90;;;11.55;;
32038;SDS011;18549;42.286;22.688;2023-04-24T03:04:03;17.10;;;11.40;;
32038;SDS011;18549;42.286;22.688;2023-04-24T03:06:31;18.17;;;11.88;;
32038;SDS011;18549;42.286;22.688;2023-04-24T03:09:00;20.10;;;12.27;;
32038;SDS011;18549;42.286;22.688;2023-04-24T03:11:27;26.70;;;14.13;;
32038;SDS011;18549;42.286;22.688;2023-04-24T03:13:54;20.53;;;12.43;;
32038;SDS011;18549;42.286;22.688;2023-04-24T03:16:21;17.15;;;12.68;;
32038;SDS011;18549;42.286;22.688;2023-04-24T03:18:47;19.50;;;12.23;;
32038;SDS011;18549;42.286;22.688;2023-04-24T03:21:14;15.32;;;10.80;;
32038;SDS011;18549;42.286;22.688;2023-04-24T03:23:42;17.55;;;11.45;;
32038;SDS011;18549;42.286;22.688;2023-04-24T03:26:09;18.75;;;11.35;;
32038;SDS011;18549;42.286;22.688;2023-04-24T03:28:36;16.90;;;10.90;;
32038;SDS011;18549;42.286;22.688;2023-04-24T03:31:02;15.35;;;10.05;;
32038;SDS011;18549;42.286;22.688;2023-04-24T03:33:30;22.43;;;15.13;;
32038;SDS011;18549;42.286;22.688;2023-04-24T03:35:56;19.60;;;13.65;;
32038;SDS011;18549;42.286;22.688;2023-04-24T03:38:23;34.80;;;18.05;;
32038;SDS011;18549;42.286;22.688;2023-04-24T03:40:51;27.37;;;17.05;;
32038;SDS011;18549;42.286;22.688;2023-04-24T03:43:18;30.50;;;18.03;;
32038;SDS011;18549;42.286;22.688;2023-04-24T03:45:44;29.07;;;17.60;;
32038;SDS011;18549;42.286;22.688;2023-04-24T03:48:11;25.45;;;15.73;;
32038;SDS011;18549;42.286;22.688;2023-04-24T03:50:38;25.10;;;14.27;;
32038;SDS011;18549;42.286;22.688;2023-04-24T03:53:05;22.45;;;14.65;;
32038;SDS011;18549;42.286;22.688;2023-04-24T03:55:31;23.43;;;15.27;;
32038;SDS011;18549;42.286;22.688;2023-04-24T03:58:00;18.97;;;13.90;;
32038;SDS011;18549;42.286;22.688;2023-04-24T04:00:27;14.53;;;11.83;;
32038;SDS011;18549;42.286;22.688;2023-04-24T04:02:58;16.67;;;12.37;;
32038;SDS011;18549;42.286;22.688;2023-04-24T04:05:25;15.98;;;11.95;;
32038;SDS011;18549;42.286;22.688;2023-04-24T04:07:51;26.50;;;14.35;;
32038;SDS011;18549;42.286;22.688;2023-04-24T04:10:18;27.23;;;15.17;;
32038;SDS011;18549;42.286;22.688;2023-04-24T04:12:45;17.33;;;12.90;;
32038;SDS011;18549;42.286;22.688;2023-04-24T04:15:13;19.73;;;13.27;;
32038;SDS011;18549;42.286;22.688;2023-04-24T04:17:40;17.67;;;13.23;;
32038;SDS011;18549;42.286;22.688;2023-04-24T04:20:07;24.80;;;14.23;;
32038;SDS011;18549;42.286;22.688;2023-04-24T04:22:35;26.67;;;13.80;;
32038;SDS011;18549;42.286;22.688;2023-04-24T04:25:02;26.33;;;15.27;;
32038;SDS011;18549;42.286;22.688;2023-04-24T04:27:29;21.40;;;15.60;;
32038;SDS011;18549;42.286;22.688;2023-04-24T04:29:58;24.57;;;17.03;;
32038;SDS011;18549;42.286;22.688;2023-04-24T04:32:31;19.00;;;16.33;;
32038;SDS011;18549;42.286;22.688;2023-04-24T04:34:58;28.83;;;16.02;;
32038;SDS011;18549;42.286;22.688;2023-04-24T04:37:28;23.67;;;15.35;;
32038;SDS011;18549;42.286;22.688;2023-04-24T04:39:54;20.73;;;15.38;;
32038;SDS011;18549;42.286;22.688;2023-04-24T04:42:23;27.83;;;14.38;;
32038;SDS011;18549;42.286;22.688;2023-04-24T04:44:50;21.00;;;13.50;;
32038;SDS011;18549;42.286;22.688;2023-04-24T04:47:17;36.22;;;17.42;;
32038;SDS011;18549;42.286;22.688;2023-04-24T04:49:46;33.10;;;18.10;;
32038;SDS011;18549;42.286;22.688;2023-04-24T04:52:16;28.08;;;19.25;;
32038;SDS011;18549;42.286;22.688;2023-04-24T04:54:42;31.75;;;22.75;;
32038;SDS011;18549;42.286;22.688;2023-04-24T04:57:10;41.58;;;23.35;;
32038;SDS011;18549;42.286;22.688;2023-04-24T04:59:37;30.42;;;19.70;;
32038;SDS011;18549;42.286;22.688;2023-04-24T05:02:04;32.80;;;21.05;;
32038;SDS011;18549;42.286;22.688;2023-04-24T05:04:31;37.97;;;18.33;;
32038;SDS011;18549;42.286;22.688;2023-04-24T05:06:59;41.93;;;18.80;;
32038;SDS011;18549;42.286;22.688;2023-04-24T05:09:26;31.42;;;17.40;;
32038;SDS011;18549;42.286;22.688;2023-04-24T05:11:54;36.60;;;19.30;;
32038;SDS011;18549;42.286;22.688;2023-04-24T05:14:21;40.03;;;19.17;;
32038;SDS011;18549;42.286;22.688;2023-04-24T05:16:48;36.13;;;19.50;;
32038;SDS011;18549;42.286;22.688;2023-04-24T05:19:15;30.88;;;18.37;;
32038;SDS011;18549;42.286;22.688;2023-04-24T05:21:41;29.23;;;18.67;;
32038;SDS011;18549;42.286;22.688;2023-04-24T05:24:12;25.48;;;18.12;;
32038;SDS011;18549;42.286;22.688;2023-04-24T05:26:39;29.95;;;18.95;;
32038;SDS011;18549;42.286;22.688;2023-04-24T05:29:06;47.13;;;20.40;;
32038;SDS011;18549;42.286;22.688;2023-04-24T05:31:32;27.02;;;18.08;;
32038;SDS011;18549;42.286;22.688;2023-04-24T05:33:59;38.65;;;19.33;;
32038;SDS011;18549;42.286;22.688;2023-04-24T05:36:27;36.13;;;19.02;;
32038;SDS011;18549;42.286;22.688;2023-04-24T05:38:54;23.55;;;16.80;;
32038;SDS011;18549;42.286;22.688;2023-04-24T05:41:23;31.90;;;18.12;;
32038;SDS011;18549;42.286;22.688;2023-04-24T05:43:50;35.17;;;18.60;;
32038;SDS011;18549;42.286;22.688;2023-04-24T05:46:16;26.92;;;17.17;;
32038;SDS011;18549;42.286;22.688;2023-04-24T05:48:43;27.62;;;17.80;;
32038;SDS011;18549;42.286;22.688;2023-04-24T05:51:10;33.58;;;19.58;;
32038;SDS011;18549;42.286;22.688;2023-04-24T05:53:37;30.08;;;17.02;;
32038;SDS011;18549;42.286;22.688;2023-04-24T05:56:06;23.23;;;14.20;;
32038;SDS011;18549;42.286;22.688;2023-04-24T05:58:34;17.77;;;13.77;;
32038;SDS011;18549;42.286;22.688;2023-04-24T06:01:02;17.62;;;12.60;;
32038;SDS011;18549;42.286;22.688;2023-04-24T06:03:29;18.65;;;12.55;;
32038;SDS011;18549;42.286;22.688;2023-04-24T06:05:56;22.30;;;11.35;;
32038;SDS011;18549;42.286;22.688;2023-04-24T06:08:23;19.35;;;11.25;;
32038;SDS011;18549;42.286;22.688;2023-04-24T06:27:21;15.27;;;8.13;;
32038;SDS011;18549;42.286;22.688;2023-04-24T06:29:50;15.13;;;7.65;;
32038;SDS011;18549;42.286;22.688;2023-04-24T06:32:19;13.50;;;6.12;;
32038;SDS011;18549;42.286;22.688;2023-04-24T06:34:47;8.88;;;7.20;;
32038;SDS011;18549;42.286;22.688;2023-04-24T06:37:13;13.60;;;7.28;;
32038;SDS011;18549;42.286;22.688;2023-04-24T06:39:43;11.52;;;7.30;;
32038;SDS011;18549;42.286;22.688;2023-04-24T06:42:10;13.88;;;7.93;;
32038;SDS011;18549;42.286;22.688;2023-04-24T06:44:38;11.12;;;7.18;;
32038;SDS011;18549;42.286;22.688;2023-04-24T06:47:06;12.47;;;8.80;;
32038;SDS011;18549;42.286;22.688;2023-04-24T06:49:34;16.10;;;8.57;;
32038;SDS011;18549;42.286;22.688;2023-04-24T06:52:02;11.27;;;7.80;;
32038;SDS011;18549;42.286;22.688;2023-04-24T06:54:30;10.85;;;7.15;;
32038;SDS011;18549;42.286;22.688;2023-04-24T06:56:58;12.10;;;7.32;;
32038;SDS011;18549;42.286;22.688;2023-04-24T06:59:25;12.20;;;8.20;;
32038;SDS011;18549;42.286;22.688;2023-04-24T07:01:55;11.05;;;6.95;;
32038;SDS011;18549;42.286;22.688;2023-04-24T07:04:22;9.90;;;7.53;;
32038;SDS011;18549;42.286;22.688;2023-04-24T07:06:51;7.62;;;6.78;;
32038;SDS011;18549;42.286;22.688;2023-04-24T07:09:19;13.48;;;6.50;;
32038;SDS011;18549;42.286;22.688;2023-04-24T07:11:47;13.07;;;6.57;;
32038;SDS011;18549;42.286;22.688;2023-04-24T07:14:14;12.98;;;6.70;;
32038;SDS011;18549;42.286;22.688;2023-04-24T07:16:41;13.45;;;7.70;;
32038;SDS011;18549;42.286;22.688;2023-04-24T07:19:10;11.25;;;7.47;;
32038;SDS011;18549;42.286;22.688;2023-04-24T07:21:38;7.90;;;7.00;;
32038;SDS011;18549;42.286;22.688;2023-04-24T07:24:05;13.90;;;7.35;;
32038;SDS011;18549;42.286;22.688;2023-04-24T07:26:36;14.68;;;7.95;;
32038;SDS011;18549;42.286;22.688;2023-04-24T07:29:05;28.55;;;7.68;;
32038;SDS011;18549;42.286;22.688;2023-04-24T07:31:32;7.65;;;6.90;;
32038;SDS011;18549;42.286;22.688;2023-04-24T07:34:00;8.82;;;5.60;;
32038;SDS011;18549;42.286;22.688;2023-04-24T07:36:32;8.52;;;6.97;;
32038;SDS011;18549;42.286;22.688;2023-04-24T07:38:59;10.30;;;5.87;;
32038;SDS011;18549;42.286;22.688;2023-04-24T07:41:27;11.63;;;6.72;;
32038;SDS011;18549;42.286;22.688;2023-04-24T07:43:55;7.32;;;6.50;;
32038;SDS011;18549;42.286;22.688;2023-04-24T07:46:22;9.27;;;6.45;;
32038;SDS011;18549;42.286;22.688;2023-04-24T07:48:50;12.40;;;6.47;;
32038;SDS011;18549;42.286;22.688;2023-04-24T07:51:18;14.27;;;6.35;;
32038;SDS011;18549;42.286;22.688;2023-04-24T07:53:47;10.90;;;7.10;;
32038;SDS011;18549;42.286;22.688;2023-04-24T07:56:15;8.82;;;6.78;;
32038;SDS011;18549;42.286;22.688;2023-04-24T07:58:43;6.45;;;5.78;;
32038;SDS011;18549;42.286;22.688;2023-04-24T08:01:10;10.27;;;6.90;;
32038;SDS011;18549;42.286;22.688;2023-04-24T08:03:38;7.45;;;6.57;;
32038;SDS011;18549;42.286;22.688;2023-04-24T08:06:05;14.13;;;6.20;;
32038;SDS011;18549;42.286;22.688;2023-04-24T08:08:33;9.73;;;6.82;;
32038;SDS011;18549;42.286;22.688;2023-04-24T08:11:02;10.55;;;6.68;;
32038;SDS011;18549;42.286;22.688;2023-04-24T08:13:29;10.25;;;6.03;;
32038;SDS011;18549;42.286;22.688;2023-04-24T08:15:57;7.87;;;6.65;;
32038;SDS011;18549;42.286;22.688;2023-04-24T08:18:24;8.95;;;5.07;;
32038;SDS011;18549;42.286;22.688;2023-04-24T08:20:52;7.55;;;5.70;;
32038;SDS011;18549;42.286;22.688;2023-04-24T08:23:19;12.50;;;5.50;;
32038;SDS011;18549;42.286;22.688;2023-04-24T08:25:47;7.93;;;6.05;;
32038;SDS011;18549;42.286;22.688;2023-04-24T08:28:16;6.70;;;6.00;;
32038;SDS011;18549;42.286;22.688;2023-04-24T08:30:45;8.88;;;5.62;;
32038;SDS011;18549;42.286;22.688;2023-04-24T08:33:19;7.43;;;5.15;;
32038;SDS011;18549;42.286;22.688;2023-04-24T08:35:47;7.72;;;5.03;;
32038;SDS011;18549;42.286;22.688;2023-04-24T08:38:14;6.22;;;5.60;;
32038;SDS011;18549;42.286;22.688;2023-04-24T08:40:42;6.68;;;5.00;;
32038;SDS011;18549;42.286;22.688;2023-04-24T08:43:11;8.05;;;5.25;;
32038;SDS011;18549;42.286;22.688;2023-04-24T08:45:42;7.90;;;5.53;;
32038;SDS011;18549;42.286;22.688;2023-04-24T08:48:09;7.93;;;6.43;;
32038;SDS011;18549;42.286;22.688;2023-04-24T08:50:37;8.02;;;5.47;;
32038;SDS011;18549;42.286;22.688;2023-04-24T08:53:10;7.37;;;4.93;;
32038;SDS011;18549;42.286;22.688;2023-04-24T08:55:38;7.60;;;4.87;;
32038;SDS011;18549;42.286;22.688;2023-04-24T08:58:07;10.45;;;5.22;;
32038;SDS011;18549;42.286;22.688;2023-04-24T09:00:34;5.82;;;4.78;;
32038;SDS011;18549;42.286;22.688;2023-04-24T09:03:04;11.82;;;4.93;;
32038;SDS011;18549;42.286;22.688;2023-04-24T09:05:32;5.57;;;4.03;;
32038;SDS011;18549;42.286;22.688;2023-04-24T09:08:00;8.82;;;5.47;;
32038;SDS011;18549;42.286;22.688;2023-04-24T09:10:31;4.90;;;3.95;;
32038;SDS011;18549;42.286;22.688;2023-04-24T09:13:00;5.18;;;4.07;;
32038;SDS011;18549;42.286;22.688;2023-04-24T09:15:28;10.05;;;4.53;;
32038;SDS011;18549;42.286;22.688;2023-04-24T09:17:56;5.93;;;4.07;;
32038;SDS011;18549;42.286;22.688;2023-04-24T09:20:25;6.78;;;4.07;;
32038;SDS011;18549;42.286;22.688;2023-04-24T09:22:53;6.85;;;3.92;;
32038;SDS011;18549;42.286;22.688;2023-04-24T09:25:21;5.50;;;4.87;;
32038;SDS011;18549;42.286;22.688;2023-04-24T09:27:50;9.02;;;4.55;;
32038;SDS011;18549;42.286;22.688;2023-04-24T09:30:21;7.30;;;4.43;;
32038;SDS011;18549;42.286;22.688;2023-04-24T09:32:49;9.24;;;4.44;;
32038;SDS011;18549;42.286;22.688;2023-04-24T09:35:43;5.80;;;3.72;;
32038;SDS011;18549;42.286;22.688;2023-04-24T09:38:16;5.95;;;3.62;;
32038;SDS011;18549;42.286;22.688;2023-04-24T09:40:43;5.62;;;3.50;;
32038;SDS011;18549;42.286;22.688;2023-04-24T09:43:11;8.88;;;4.62;;
32038;SDS011;18549;42.286;22.688;2023-04-24T09:45:38;10.95;;;5.12;;
32038;SDS011;18549;42.286;22.688;2023-04-24T09:48:08;11.48;;;5.37;;
32038;SDS011;18549;42.286;22.688;2023-04-24T09:50:36;8.30;;;5.00;;
32038;SDS011;18549;42.286;22.688;2023-04-24T09:53:05;8.57;;;4.05;;
32038;SDS011;18549;42.286;22.688;2023-04-24T10:13:47;4.43;;;3.83;;
32038;SDS011;18549;42.286;22.688;2023-04-24T10:16:14;5.47;;;3.70;;
32038;SDS011;18549;42.286;22.688;2023-04-24T10:18:42;9.07;;;4.10;;
32038;SDS011;18549;42.286;22.688;2023-04-24T10:21:09;5.45;;;4.55;;
32038;SDS011;18549;42.286;22.688;2023-04-24T10:23:36;11.90;;;4.35;;
32038;SDS011;18549;42.286;22.688;2023-04-24T10:26:04;7.55;;;3.80;;
32038;SDS011;18549;42.286;22.688;2023-04-24T10:28:31;7.70;;;3.65;;
32038;SDS011;18549;42.286;22.688;2023-04-24T10:31:00;7.47;;;3.93;;
32038;SDS011;18549;42.286;22.688;2023-04-24T10:33:30;5.20;;;3.97;;
32038;SDS011;18549;42.286;22.688;2023-04-24T10:35:58;5.72;;;4.43;;
32038;SDS011;18549;42.286;22.688;2023-04-24T10:38:26;6.70;;;3.70;;
32038;SDS011;18549;42.286;22.688;2023-04-24T10:40:57;14.70;;;4.67;;
32038;SDS011;18549;42.286;22.688;2023-04-24T10:43:33;4.12;;;3.37;;
32038;SDS011;18549;42.286;22.688;2023-04-24T10:46:02;13.00;;;4.78;;
32038;SDS011;18549;42.286;22.688;2023-04-24T10:48:31;8.35;;;4.18;;
32038;SDS011;18549;42.286;22.688;2023-04-24T10:50:58;7.82;;;4.20;;
32038;SDS011;18549;42.286;22.688;2023-04-24T10:53:27;9.63;;;4.57;;
32038;SDS011;18549;42.286;22.688;2023-04-24T10:55:57;7.03;;;4.00;;
32038;SDS011;18549;42.286;22.688;2023-04-24T10:58:36;9.40;;;4.55;;
32038;SDS011;18549;42.286;22.688;2023-04-24T11:01:06;11.45;;;4.40;;
32038;SDS011;18549;42.286;22.688;2023-04-24T11:03:34;9.70;;;3.90;;
32038;SDS011;18549;42.286;22.688;2023-04-24T11:06:03;9.80;;;3.40;;
32038;SDS011;18549;42.286;22.688;2023-04-24T11:08:32;10.73;;;3.65;;
32038;SDS011;18549;42.286;22.688;2023-04-24T11:11:10;10.77;;;3.75;;
32038;SDS011;18549;42.286;22.688;2023-04-24T11:16:30;10.40;;;4.37;;
32038;SDS011;18549;42.286;22.688;2023-04-24T11:19:02;7.30;;;4.57;;
32038;SDS011;18549;42.286;22.688;2023-04-24T11:21:32;7.10;;;3.95;;
32038;SDS011;18549;42.286;22.688;2023-04-24T11:27:05;9.73;;;6.00;;
32038;SDS011;18549;42.286;22.688;2023-04-24T11:29:44;6.25;;;4.30;;
32038;SDS011;18549;42.286;22.688;2023-04-24T11:32:18;15.10;;;4.37;;
32038;SDS011;18549;42.286;22.688;2023-04-24T11:34:50;5.20;;;3.70;;
32038;SDS011;18549;42.286;22.688;2023-04-24T11:37:18;9.02;;;3.95;;
32038;SDS011;18549;42.286;22.688;2023-04-24T11:39:44;11.27;;;4.07;;
32038;SDS011;18549;42.286;22.688;2023-04-24T11:42:13;8.20;;;3.20;;
32038;SDS011;18549;42.286;22.688;2023-04-24T11:44:41;5.53;;;3.15;;
32038;SDS011;18549;42.286;22.688;2023-04-24T11:47:10;10.85;;;3.47;;
32038;SDS011;18549;42.286;22.688;2023-04-24T11:49:38;5.95;;;3.00;;
32038;SDS011;18549;42.286;22.688;2023-04-24T11:52:05;6.40;;;3.22;;
32038;SDS011;18549;42.286;22.688;2023-04-24T11:54:35;5.32;;;3.05;;
32038;SDS011;18549;42.286;22.688;2023-04-24T11:57:03;6.32;;;3.03;;
32038;SDS011;18549;42.286;22.688;2023-04-24T11:59:35;8.80;;;2.85;;
32038;SDS011;18549;42.286;22.688;2023-04-24T12:02:02;10.38;;;6.12;;
32038;SDS011;18549;42.286;22.688;2023-04-24T12:04:39;7.82;;;3.65;;
32038;SDS011;18549;42.286;22.688;2023-04-24T12:07:07;7.45;;;3.75;;
32038;SDS011;18549;42.286;22.688;2023-04-24T12:23:59;8.75;;;3.45;;
32038;SDS011;18549;42.286;22.688;2023-04-24T12:26:26;9.25;;;3.33;;
32038;SDS011;18549;42.286;22.688;2023-04-24T12:28:54;11.90;;;2.75;;
32038;SDS011;18549;42.286;22.688;2023-04-24T12:31:21;7.80;;;2.90;;
32038;SDS011;18549;42.286;22.688;2023-04-24T12:33:48;6.50;;;3.03;;
32038;SDS011;18549;42.286;22.688;2023-04-24T12:36:15;4.35;;;2.95;;
32038;SDS011;18549;42.286;22.688;2023-04-24T12:38:43;15.20;;;5.43;;
32038;SDS011;18549;42.286;22.688;2023-04-24T12:41:13;12.57;;;4.50;;
32038;SDS011;18549;42.286;22.688;2023-04-24T12:43:50;12.35;;;5.03;;
32038;SDS011;18549;42.286;22.688;2023-04-24T12:46:18;6.18;;;4.22;;
32038;SDS011;18549;42.286;22.688;2023-04-24T12:48:45;4.70;;;3.72;;
32038;SDS011;18549;42.286;22.688;2023-04-24T12:51:12;8.95;;;3.85;;
32038;SDS011;18549;42.286;22.688;2023-04-24T12:53:38;17.30;;;10.15;;
32038;SDS011;18549;42.286;22.688;2023-04-24T12:56:05;12.55;;;7.60;;
32038;SDS011;18549;42.286;22.688;2023-04-24T12:58:33;6.87;;;5.37;;
32038;SDS011;18549;42.286;22.688;2023-04-24T13:01:00;9.35;;;5.45;;
32038;SDS011;18549;42.286;22.688;2023-04-24T13:03:27;7.30;;;3.30;;
32038;SDS011;18549;42.286;22.688;2023-04-24T13:05:54;9.55;;;5.00;;
32038;SDS011;18549;42.286;22.688;2023-04-24T13:08:21;7.32;;;4.20;;
32038;SDS011;18549;42.286;22.688;2023-04-24T13:10:47;5.45;;;4.22;;
32038;SDS011;18549;42.286;22.688;2023-04-24T13:13:16;12.20;;;3.05;;
32038;SDS011;18549;42.286;22.688;2023-04-24T13:15:44;7.82;;;4.35;;
32038;SDS011;18549;42.286;22.688;2023-04-24T13:18:11;9.43;;;3.42;;
32038;SDS011;18549;42.286;22.688;2023-04-24T13:20:37;10.82;;;4.30;;
32038;SDS011;18549;42.286;22.688;2023-04-24T13:23:06;9.15;;;3.53;;
32038;SDS011;18549;42.286;22.688;2023-04-24T13:25:34;13.13;;;3.85;;
32038;SDS011;18549;42.286;22.688;2023-04-24T13:28:02;8.68;;;3.83;;
32038;SDS011;18549;42.286;22.688;2023-04-24T13:30:29;13.68;;;3.53;;
32038;SDS011;18549;42.286;22.688;2023-04-24T13:32:57;8.85;;;4.75;;
32038;SDS011;18549;42.286;22.688;2023-04-24T13:35:24;9.63;;;3.20;;
32038;SDS011;18549;42.286;22.688;2023-04-24T13:37:50;8.13;;;4.15;;
32038;SDS011;18549;42.286;22.688;2023-04-24T13:40:17;6.18;;;3.92;;
32038;SDS011;18549;42.286;22.688;2023-04-24T13:42:44;6.43;;;3.60;;
32038;SDS011;18549;42.286;22.688;2023-04-24T13:45:11;10.15;;;4.60;;
32038;SDS011;18549;42.286;22.688;2023-04-24T13:47:38;6.15;;;4.45;;
32038;SDS011;18549;42.286;22.688;2023-04-24T13:50:09;7.62;;;4.68;;
32038;SDS011;18549;42.286;22.688;2023-04-24T13:52:36;6.95;;;4.85;;
32038;SDS011;18549;42.286;22.688;2023-04-24T13:55:03;7.62;;;3.95;;
32038;SDS011;18549;42.286;22.688;2023-04-24T13:57:30;5.78;;;4.03;;
32038;SDS011;18549;42.286;22.688;2023-04-24T13:59:57;6.85;;;3.92;;
32038;SDS011;18549;42.286;22.688;2023-04-24T14:02:26;7.70;;;3.65;;
32038;SDS011;18549;42.286;22.688;2023-04-24T14:04:53;9.30;;;3.42;;
32038;SDS011;18549;42.286;22.688;2023-04-24T14:07:21;6.90;;;4.82;;
32038;SDS011;18549;42.286;22.688;2023-04-24T14:09:48;7.68;;;3.85;;
32038;SDS011;18549;42.286;22.688;2023-04-24T14:12:15;4.40;;;3.50;;
32038;SDS011;18549;42.286;22.688;2023-04-24T14:14:44;5.32;;;3.83;;
32038;SDS011;18549;42.286;22.688;2023-04-24T14:17:12;8.48;;;3.72;;
32038;SDS011;18549;42.286;22.688;2023-04-24T14:19:39;8.48;;;3.83;;
32038;SDS011;18549;42.286;22.688;2023-04-24T14:22:05;9.57;;;3.87;;
32038;SDS011;18549;42.286;22.688;2023-04-24T14:24:33;8.93;;;4.75;;
32038;SDS011;18549;42.286;22.688;2023-04-24T14:27:01;4.20;;;3.15;;
32038;SDS011;18549;42.286;22.688;2023-04-24T14:29:28;4.87;;;2.78;;
32038;SDS011;18549;42.286;22.688;2023-04-24T14:31:55;6.35;;;2.62;;
32038;SDS011;18549;42.286;22.688;2023-04-24T14:34:22;10.75;;;5.87;;
32038;SDS011;18549;42.286;22.688;2023-04-24T14:36:48;8.93;;;3.58;;
32038;SDS011;18549;42.286;22.688;2023-04-24T14:39:15;8.63;;;3.35;;
32038;SDS011;18549;42.286;22.688;2023-04-24T14:41:43;5.40;;;2.42;;
32038;SDS011;18549;42.286;22.688;2023-04-24T14:44:10;5.15;;;3.00;;
32038;SDS011;18549;42.286;22.688;2023-04-24T14:46:37;5.75;;;2.85;;
32038;SDS011;18549;42.286;22.688;2023-04-24T14:49:05;8.63;;;4.82;;
32038;SDS011;18549;42.286;22.688;2023-04-24T14:51:34;6.30;;;4.22;;
32038;SDS011;18549;42.286;22.688;2023-04-24T14:54:02;10.60;;;6.87;;
32038;SDS011;18549;42.286;22.688;2023-04-24T14:56:29;9.43;;;5.60;;
32038;SDS011;18549;42.286;22.688;2023-04-24T14:58:57;7.57;;;4.35;;
32038;SDS011;18549;42.286;22.688;2023-04-24T15:01:24;7.28;;;5.20;;
32038;SDS011;18549;42.286;22.688;2023-04-24T15:03:51;7.93;;;5.35;;
32038;SDS011;18549;42.286;22.688;2023-04-24T15:06:17;5.82;;;3.72;;
32038;SDS011;18549;42.286;22.688;2023-04-24T15:08:45;11.05;;;4.70;;
32038;SDS011;18549;42.286;22.688;2023-04-24T15:11:12;16.65;;;9.63;;
32038;SDS011;18549;42.286;22.688;2023-04-24T15:13:39;5.43;;;3.03;;
32038;SDS011;18549;42.286;22.688;2023-04-24T15:16:07;4.50;;;2.85;;
32038;SDS011;18549;42.286;22.688;2023-04-24T15:18:34;9.48;;;3.92;;
32038;SDS011;18549;42.286;22.688;2023-04-24T15:21:00;9.77;;;3.28;;
32038;SDS011;18549;42.286;22.688;2023-04-24T15:23:27;5.28;;;3.35;;